createdAt,value
2019-03-06T00:02:28.624Z,7.20
2019-03-06T00:04:59.100Z,7.10
2019-03-06T00:07:29.487Z,7.00
2019-03-06T00:09:59.873Z,6.90
2019-03-06T00:12:30.226Z,6.80
2019-03-06T00:15:00.578Z,6.80
2019-03-06T00:17:31.106Z,6.70
2019-03-06T00:20:01.562Z,6.60
2019-03-06T00:22:32.976Z,6.50
2019-03-06T00:25:03.420Z,6.50
2019-03-06T00:27:33.815Z,6.40
2019-03-06T00:30:04.542Z,6.40
2019-03-06T00:32:35.068Z,6.30
2019-03-06T00:35:07.392Z,6.20
2019-03-06T00:37:37.784Z,6.20
2019-03-06T00:40:15.763Z,6.10
2019-03-06T00:42:49.429Z,6.10
2019-03-06T00:45:19.762Z,6.00
2019-03-06T00:47:50.235Z,6.00
2019-03-06T00:50:20.567Z,6.00
2019-03-06T00:52:50.996Z,6.00
2019-03-06T00:55:21.462Z,6.00
2019-03-06T00:57:51.811Z,6.00
2019-03-06T01:00:23.964Z,6.00
2019-03-06T01:02:54.656Z,6.00
2019-03-06T01:05:25.628Z,6.00
2019-03-06T01:07:55.997Z,6.00
2019-03-06T01:10:26.330Z,5.90
2019-03-06T01:12:56.681Z,5.90
2019-03-06T01:15:27.138Z,5.80
2019-03-06T01:17:57.674Z,5.80
2019-03-06T01:20:28.019Z,5.70
2019-03-06T01:22:58.393Z,5.70
2019-03-06T01:25:28.840Z,5.60
2019-03-06T01:27:59.417Z,5.60
2019-03-06T01:30:29.765Z,5.50
2019-03-06T01:33:05.887Z,5.50
2019-03-06T01:35:57.942Z,5.50
2019-03-06T01:38:59.326Z,5.50
2019-03-06T01:41:52.522Z,5.40
2019-03-06T01:44:34.068Z,5.40
2019-03-06T01:47:04.506Z,5.40
2019-03-06T01:49:34.982Z,5.40
2019-03-06T01:52:05.321Z,5.40
2019-03-06T01:54:35.662Z,5.40
2019-03-06T01:57:07.183Z,5.40
2019-03-06T01:59:37.573Z,5.40
2019-03-06T02:02:07.924Z,5.40
2019-03-06T02:04:38.360Z,5.30
2019-03-06T02:07:10.555Z,5.30
2019-03-06T02:09:41.422Z,5.20
2019-03-06T02:12:11.854Z,5.20
2019-03-06T02:14:42.497Z,5.10
2019-03-06T02:17:12.863Z,5.10
2019-03-06T02:19:44.016Z,5.00
2019-03-06T02:22:14.816Z,5.00
2019-03-06T02:24:45.475Z,5.00
2019-03-06T02:27:16.132Z,4.90
2019-03-06T02:29:46.491Z,4.90
2019-03-06T02:32:16.959Z,4.80
2019-03-06T02:34:47.317Z,4.80
2019-03-06T02:37:17.784Z,4.70
2019-03-06T02:39:48.195Z,4.70
2019-03-06T02:42:18.674Z,4.70
2019-03-06T02:44:50.925Z,4.60
2019-03-06T02:47:21.345Z,4.60
2019-03-06T02:49:52.132Z,4.60
2019-03-06T02:52:22.749Z,4.60
2019-03-06T02:54:53.342Z,4.60
2019-03-06T02:57:23.878Z,4.50
2019-03-06T03:00:13.467Z,4.60
2019-03-06T03:02:57.974Z,4.50
2019-03-06T03:05:32.072Z,4.50
2019-03-06T03:08:02.417Z,4.50
2019-03-06T03:10:32.885Z,4.50
2019-03-06T03:13:03.668Z,4.50
2019-03-06T03:15:34.526Z,4.50
2019-03-06T03:18:04.873Z,4.60
2019-03-06T03:20:35.223Z,4.60
2019-03-06T03:23:05.570Z,4.50
2019-03-06T03:25:38.568Z,4.60
2019-03-06T03:28:08.943Z,4.60
2019-03-06T03:30:39.333Z,4.60
2019-03-06T03:33:29.786Z,4.60
2019-03-06T03:36:00.155Z,4.60
2019-03-06T03:38:31.299Z,4.50
2019-03-06T03:41:02.034Z,4.50
2019-03-06T03:43:32.397Z,4.50
2019-03-06T03:46:14.471Z,4.50
2019-03-06T03:48:44.914Z,4.60
2019-03-06T03:51:15.286Z,4.50
2019-03-06T03:53:45.649Z,4.50
2019-03-06T03:56:16.036Z,4.40
2019-03-06T03:58:46.390Z,4.40
2019-03-06T04:01:17.064Z,4.30
2019-03-06T04:03:47.653Z,4.20
2019-03-06T04:06:18.855Z,4.20
2019-03-06T04:08:49.181Z,4.10
2019-03-06T04:11:19.635Z,4.10
2019-03-06T04:13:49.961Z,4.10
2019-03-06T04:16:20.326Z,4.00
2019-03-06T04:18:50.656Z,4.00
2019-03-06T04:21:21.012Z,3.90
2019-03-06T04:23:51.400Z,4.00
2019-03-06T04:26:21.771Z,3.90
2019-03-06T04:28:52.114Z,3.90
2019-03-06T04:31:22.499Z,3.90
2019-03-06T04:33:52.829Z,3.90
2019-03-06T04:36:23.216Z,4.00
2019-03-06T04:38:53.540Z,4.00
2019-03-06T04:41:25.211Z,4.10
2019-03-06T04:43:55.545Z,4.10
2019-03-06T04:46:25.928Z,4.20
2019-03-06T04:48:56.226Z,4.20
2019-03-06T04:51:26.606Z,4.30
2019-03-06T04:53:56.911Z,4.30
2019-03-06T04:56:27.282Z,4.40
2019-03-06T04:58:57.613Z,4.40
2019-03-06T05:01:27.980Z,4.40
2019-03-06T05:03:58.405Z,4.40
2019-03-06T05:06:28.826Z,4.50
2019-03-06T05:08:59.166Z,4.50
2019-03-06T05:11:29.670Z,4.40
2019-03-06T05:14:00.025Z,4.50
2019-03-06T05:16:49.241Z,4.40
2019-03-06T05:19:24.368Z,4.50
2019-03-06T05:21:55.162Z,4.40
2019-03-06T05:24:25.812Z,4.40
2019-03-06T05:26:56.221Z,4.50
2019-03-06T05:29:26.713Z,4.50
2019-03-06T05:32:24.813Z,4.60
2019-03-06T05:34:55.426Z,4.60
2019-03-06T05:37:47.173Z,4.70
2019-03-06T05:40:17.617Z,4.70
2019-03-06T05:42:48.278Z,4.70
2019-03-06T05:45:18.647Z,4.70
2019-03-06T05:47:50.080Z,4.60
2019-03-06T05:50:20.782Z,4.60
2019-03-06T05:52:51.382Z,4.50
2019-03-06T05:55:21.838Z,4.40
2019-03-06T05:57:52.291Z,4.30
2019-03-06T06:00:24.550Z,4.20
2019-03-06T06:02:54.888Z,4.10
2019-03-06T06:05:26.334Z,4.00
2019-03-06T06:07:56.696Z,3.90
2019-03-06T06:10:27.074Z,3.80
2019-03-06T06:12:58.424Z,3.70
2019-03-06T06:15:28.829Z,3.60
2019-03-06T06:17:59.205Z,3.60
2019-03-06T06:20:29.593Z,3.50
2019-03-06T06:23:28.046Z,3.50
2019-03-06T06:25:58.635Z,3.50
2019-03-06T06:28:32.788Z,3.50
2019-03-06T06:31:03.192Z,3.60
2019-03-06T06:33:33.528Z,3.60
2019-03-06T06:36:03.891Z,3.70
2019-03-06T06:38:34.235Z,3.70
2019-03-06T06:41:04.998Z,3.80
2019-03-06T06:43:35.879Z,3.90
2019-03-06T06:46:07.655Z,3.90
2019-03-06T06:48:40.194Z,4.00
2019-03-06T06:51:50.999Z,4.10
2019-03-06T06:54:59.435Z,4.10
2019-03-06T06:57:51.921Z,4.20
2019-03-06T07:01:05.256Z,4.30
2019-03-06T07:04:42.174Z,4.30
2019-03-06T07:07:37.333Z,4.40
2019-03-06T07:10:25.468Z,4.50
2019-03-06T07:13:07.108Z,4.50
2019-03-06T07:15:58.727Z,4.60
2019-03-06T07:18:43.870Z,4.70
2019-03-06T07:21:23.367Z,4.80
2019-03-06T07:24:18.709Z,4.90
2019-03-06T07:27:24.428Z,5.00
2019-03-06T07:30:22.367Z,5.10
2019-03-06T07:33:14.861Z,5.20
2019-03-06T07:36:18.695Z,5.40
2019-03-06T07:38:52.517Z,5.60
2019-03-06T07:41:39.865Z,5.90
2019-03-06T07:44:30.102Z,6.10
2019-03-06T07:47:20.958Z,6.40
2019-03-06T07:50:10.511Z,6.70
2019-03-06T07:53:12.003Z,6.90
2019-03-06T07:55:58.044Z,7.10
2019-03-06T07:58:52.453Z,7.30
2019-03-06T08:01:29.041Z,7.50
2019-03-06T08:04:13.437Z,7.60
2019-03-06T08:06:47.765Z,7.70
2019-03-06T08:09:19.908Z,7.80
2019-03-06T08:12:12.157Z,7.90
2019-03-06T08:15:07.254Z,8.00
2019-03-06T08:17:50.869Z,8.10
2019-03-06T08:20:36.738Z,8.20
2019-03-06T08:23:37.407Z,8.20
2019-03-06T08:26:08.192Z,8.30
2019-03-06T08:28:38.994Z,8.40
2019-03-06T08:31:31.459Z,8.50
2019-03-06T08:34:01.939Z,8.60
2019-03-06T08:36:34.422Z,8.80
2019-03-06T08:39:16.147Z,8.90
2019-03-06T08:41:46.586Z,9.00
2019-03-06T08:44:17.594Z,9.20
2019-03-06T08:46:57.839Z,9.30
2019-03-06T08:49:47.353Z,9.40
2019-03-06T08:52:52.721Z,9.60
2019-03-06T08:55:36.210Z,9.70
2019-03-06T08:58:15.007Z,9.80
2019-03-06T09:01:09.100Z,9.90
2019-03-06T09:03:57.185Z,9.90
2019-03-06T09:06:45.539Z,10.00
2019-03-06T09:09:47.960Z,10.10
2019-03-06T09:12:24.250Z,10.20
2019-03-06T09:15:16.643Z,10.20
2019-03-06T09:17:57.441Z,10.30
2019-03-06T09:20:48.887Z,10.40
2019-03-06T09:23:38.242Z,10.50
2019-03-06T09:26:27.460Z,10.60
2019-03-06T09:29:15.700Z,10.80
2019-03-06T09:32:03.991Z,11.00
2019-03-06T09:35:00.306Z,11.10
2019-03-06T09:37:49.106Z,11.20
2019-03-06T09:40:26.399Z,11.30
2019-03-06T09:43:09.158Z,11.30
2019-03-06T09:45:57.031Z,11.30
2019-03-06T09:48:36.873Z,11.30
2019-03-06T09:51:15.473Z,11.20
2019-03-06T09:53:56.637Z,11.20
2019-03-06T09:56:45.943Z,11.20
2019-03-06T09:59:22.988Z,11.20
2019-03-06T10:02:06.890Z,11.30
2019-03-06T10:05:04.994Z,11.30
2019-03-06T10:07:52.125Z,11.40
2019-03-06T10:10:34.527Z,11.40
2019-03-06T10:13:19.501Z,11.50
2019-03-06T10:16:04.681Z,11.60
2019-03-06T10:18:42.449Z,11.80
2019-03-06T10:21:13.487Z,12.00
2019-03-06T10:23:43.921Z,12.30
2019-03-06T10:26:14.404Z,12.60
2019-03-06T10:28:44.811Z,12.80
2019-03-06T10:31:16.012Z,13.00
2019-03-06T10:33:46.407Z,13.20
2019-03-06T10:36:17.719Z,13.40
2019-03-06T10:38:48.156Z,13.60
2019-03-06T10:41:18.821Z,13.80
2019-03-06T10:43:49.656Z,13.90
2019-03-06T10:46:20.790Z,14.10
2019-03-06T10:48:51.141Z,14.10
2019-03-06T10:51:21.716Z,14.30
2019-03-06T10:53:52.066Z,14.50
2019-03-06T10:56:22.845Z,15.00
2019-03-06T10:58:53.217Z,15.50
2019-03-06T11:01:23.928Z,16.20
2019-03-06T11:04:12.130Z,16.90
2019-03-06T11:06:42.644Z,17.60
2019-03-06T11:09:13.267Z,18.30
2019-03-06T11:11:43.747Z,18.70
2019-03-06T11:14:14.191Z,18.90
2019-03-06T11:16:44.573Z,19.00
2019-03-06T11:19:17.593Z,19.10
2019-03-06T11:21:48.141Z,19.20
2019-03-06T11:24:19.856Z,19.30
2019-03-06T11:26:50.768Z,19.40
2019-03-06T11:29:21.175Z,19.60
2019-03-06T11:31:52.260Z,19.70
2019-03-06T11:34:22.906Z,19.70
2019-03-06T11:36:53.918Z,19.60
2019-03-06T11:39:24.960Z,19.50
2019-03-06T11:41:55.522Z,19.40
2019-03-06T11:44:25.949Z,19.50
2019-03-06T11:46:56.589Z,19.70
2019-03-06T11:49:27.317Z,20.00
2019-03-06T11:51:58.538Z,20.60
2019-03-06T11:54:29.041Z,21.10
2019-03-06T11:57:00.125Z,21.70
2019-03-06T11:59:31.491Z,22.30
2019-03-06T12:02:02.063Z,22.70
2019-03-06T12:04:32.404Z,23.20
2019-03-06T12:07:02.881Z,23.70
2019-03-06T12:09:33.902Z,23.90
2019-03-06T12:12:04.992Z,24.00
2019-03-06T12:14:35.330Z,24.10
2019-03-06T12:17:08.402Z,24.40
2019-03-06T12:19:39.932Z,24.80
2019-03-06T12:22:13.698Z,25.20
2019-03-06T12:24:44.107Z,25.20
2019-03-06T12:27:17.899Z,25.20
2019-03-06T12:29:48.352Z,25.10
2019-03-06T12:32:18.879Z,25.00
2019-03-06T12:34:49.213Z,24.80
2019-03-06T12:37:19.579Z,24.90
2019-03-06T12:39:49.951Z,25.00
2019-03-06T12:42:20.363Z,25.00
2019-03-06T12:44:50.740Z,25.10
2019-03-06T12:47:21.097Z,25.40
2019-03-06T12:49:51.494Z,26.00
2019-03-06T12:52:21.986Z,26.80
2019-03-06T12:54:52.327Z,27.50
2019-03-06T12:57:22.686Z,27.90
2019-03-06T12:59:53.026Z,27.90
2019-03-06T13:02:23.408Z,27.80
2019-03-06T13:04:53.794Z,27.10
2019-03-06T13:07:24.168Z,26.40
2019-03-06T13:09:54.485Z,25.60
2019-03-06T13:12:24.886Z,25.20
2019-03-06T13:14:55.314Z,25.00
2019-03-06T13:17:26.081Z,24.80
2019-03-06T13:19:56.425Z,24.70
2019-03-06T13:22:27.078Z,24.60
2019-03-06T13:24:57.439Z,24.30
2019-03-06T13:27:27.833Z,23.90
2019-03-06T13:29:58.157Z,23.50
2019-03-06T13:32:37.837Z,23.00
2019-03-06T13:35:08.460Z,22.70
2019-03-06T13:37:38.815Z,22.40
2019-03-06T13:40:18.078Z,22.10
2019-03-06T13:42:41.415Z,21.80
2019-03-06T13:45:12.520Z,21.60
2019-03-06T13:47:42.986Z,21.40
2019-03-06T13:50:13.952Z,21.40
2019-03-06T13:52:44.407Z,21.40
2019-03-06T13:55:15.549Z,21.60
2019-03-06T13:57:46.735Z,21.80
2019-03-06T14:00:19.000Z,22.00
2019-03-06T14:02:50.200Z,22.20
2019-03-06T14:05:21.631Z,22.30
2019-03-06T14:07:56.402Z,22.30
2019-03-06T14:10:24.115Z,22.10
2019-03-06T14:12:55.051Z,21.90
2019-03-06T14:15:25.585Z,21.60
2019-03-06T14:17:56.396Z,21.30
2019-03-06T14:20:26.875Z,20.90
2019-03-06T14:22:57.328Z,20.60
2019-03-06T14:25:28.025Z,20.20
2019-03-06T14:27:58.430Z,20.00
2019-03-06T14:30:28.913Z,19.70
2019-03-06T14:32:59.455Z,19.40
2019-03-06T14:35:30.215Z,19.20
2019-03-06T14:38:00.662Z,19.10
2019-03-06T14:40:31.853Z,19.00
2019-03-06T14:43:02.929Z,18.90
2019-03-06T14:45:33.496Z,18.70
2019-03-06T14:48:03.850Z,18.60
2019-03-06T14:50:34.408Z,18.50
2019-03-06T14:53:06.993Z,18.40
2019-03-06T14:55:37.547Z,18.30
2019-03-06T14:58:07.975Z,18.30
2019-03-06T15:00:38.433Z,18.20
2019-03-06T15:03:08.763Z,18.20
2019-03-06T15:05:46.916Z,18.10
2019-03-06T15:08:11.486Z,18.10
2019-03-06T15:10:43.215Z,18.10
2019-03-06T15:13:13.725Z,18.00
2019-03-06T15:15:44.090Z,18.00
2019-03-06T15:18:14.943Z,17.90
2019-03-06T15:20:45.370Z,17.90
2019-03-06T15:23:15.810Z,17.90
2019-03-06T15:25:46.351Z,17.90
2019-03-06T15:28:16.714Z,17.90
2019-03-06T15:30:47.358Z,17.90
2019-03-06T15:33:17.723Z,17.90
2019-03-06T15:35:48.394Z,17.80
2019-03-06T15:38:18.773Z,17.80
2019-03-06T15:40:49.115Z,17.70
2019-03-06T15:43:20.137Z,17.70
2019-03-06T15:45:50.566Z,17.60
2019-03-06T15:48:20.944Z,17.60
2019-03-06T15:50:51.262Z,17.50
2019-03-06T15:53:24.545Z,17.50
2019-03-06T15:55:53.706Z,17.50
2019-03-06T15:58:24.198Z,17.50
2019-03-06T16:00:54.538Z,17.50
2019-03-06T16:03:25.986Z,17.50
2019-03-06T16:05:56.447Z,17.50
2019-03-06T16:08:27.443Z,17.40
2019-03-06T16:10:57.770Z,17.40
2019-03-06T16:13:28.128Z,17.30
2019-03-06T16:15:58.837Z,17.20
2019-03-06T16:18:29.192Z,17.20
2019-03-06T16:20:59.597Z,17.10
2019-03-06T16:23:30.978Z,17.00
2019-03-06T16:26:01.311Z,16.90
2019-03-06T16:28:31.680Z,16.80
2019-03-06T16:31:02.786Z,16.70
2019-03-06T16:33:33.457Z,16.60
2019-03-06T16:36:03.914Z,16.60
2019-03-06T16:38:34.307Z,16.50
2019-03-06T16:41:04.849Z,16.50
2019-03-06T16:43:35.397Z,16.40
2019-03-06T16:46:06.286Z,16.30
2019-03-06T16:48:36.674Z,16.30
2019-03-06T16:51:09.102Z,16.20
2019-03-06T16:53:39.594Z,16.10
2019-03-06T16:56:09.910Z,16.00
2019-03-06T16:58:40.831Z,15.90
2019-03-06T17:01:11.281Z,15.90
2019-03-06T17:03:42.574Z,15.80
2019-03-06T17:06:12.989Z,15.70
2019-03-06T17:08:44.573Z,15.70
2019-03-06T17:11:15.022Z,15.60
2019-03-06T17:13:45.906Z,15.50
2019-03-06T17:16:16.270Z,15.50
2019-03-06T17:18:47.197Z,15.40
2019-03-06T17:21:17.541Z,15.30
2019-03-06T17:23:48.014Z,15.30
2019-03-06T17:26:20.685Z,15.20
2019-03-06T17:28:50.695Z,15.10
2019-03-06T17:31:21.151Z,15.00
2019-03-06T17:33:51.831Z,14.90
2019-03-06T17:36:22.508Z,14.70
2019-03-06T17:38:53.180Z,14.60
2019-03-06T17:41:23.544Z,14.60
2019-03-06T17:43:54.450Z,14.50
2019-03-06T17:46:24.879Z,14.50
2019-03-06T17:48:55.477Z,14.50
2019-03-06T17:51:26.165Z,14.50
2019-03-06T17:53:56.822Z,14.40
2019-03-06T17:56:27.289Z,14.40
2019-03-06T17:58:58.798Z,14.30
2019-03-06T18:01:29.187Z,14.30
2019-03-06T18:04:12.739Z,14.30
2019-03-06T18:06:43.371Z,14.30
2019-03-06T18:09:13.818Z,14.30
2019-03-06T18:11:44.176Z,14.20
2019-03-06T18:14:14.561Z,14.20
2019-03-06T18:16:44.881Z,14.20
2019-03-06T18:19:16.131Z,14.20
2019-03-06T18:21:46.475Z,14.20
2019-03-06T18:24:16.903Z,14.20
2019-03-06T18:26:47.248Z,14.20
2019-03-06T18:29:19.042Z,14.20
2019-03-06T18:31:49.376Z,14.20
2019-03-06T18:34:19.747Z,14.20
2019-03-06T18:36:50.198Z,14.20
2019-03-06T18:39:21.338Z,14.30
2019-03-06T18:41:51.691Z,14.30
2019-03-06T18:44:22.067Z,14.30
2019-03-06T18:46:52.491Z,14.30
2019-03-06T18:49:22.998Z,14.30
2019-03-06T18:51:53.324Z,14.30
2019-03-06T18:54:24.189Z,14.30
2019-03-06T18:56:54.729Z,14.30
2019-03-06T18:59:25.072Z,14.30
2019-03-06T19:01:55.398Z,14.30
2019-03-06T19:04:25.769Z,14.30
2019-03-06T19:06:56.087Z,14.20
2019-03-06T19:09:28.251Z,14.10
2019-03-06T19:11:59.165Z,14.10
2019-03-06T19:14:29.557Z,14.20
2019-03-06T19:16:59.858Z,14.10
2019-03-06T19:19:30.209Z,14.20
2019-03-06T19:22:00.546Z,14.20
2019-03-06T19:24:30.975Z,14.20
2019-03-06T19:27:01.337Z,14.30
2019-03-06T19:29:32.887Z,14.30
2019-03-06T19:32:03.586Z,14.30
2019-03-06T19:34:33.977Z,14.30
2019-03-06T19:37:04.498Z,14.30
2019-03-06T19:39:34.897Z,14.40
2019-03-06T19:42:05.261Z,14.40
2019-03-06T19:44:35.642Z,14.40
2019-03-06T19:47:06.072Z,14.40
2019-03-06T19:49:36.474Z,14.40
2019-03-06T19:52:07.529Z,14.30
2019-03-06T19:54:37.888Z,14.30
2019-03-06T19:57:08.220Z,14.30
2019-03-06T19:59:38.595Z,14.30
2019-03-06T20:02:09.050Z,14.20
2019-03-06T20:04:39.756Z,14.30
2019-03-06T20:07:10.755Z,14.30
2019-03-06T20:09:41.163Z,14.30
2019-03-06T20:12:11.554Z,14.30
2019-03-06T20:14:43.443Z,14.40
2019-03-06T20:17:14.178Z,14.40
2019-03-06T20:19:44.551Z,14.50
2019-03-06T20:22:18.304Z,14.50
2019-03-06T20:24:48.775Z,14.50
2019-03-06T20:27:19.365Z,14.60
2019-03-06T20:29:50.045Z,14.60
2019-03-06T20:32:23.330Z,14.60
2019-03-06T20:34:54.578Z,14.70
2019-03-06T20:37:24.972Z,14.70
2019-03-06T20:39:55.333Z,14.70
2019-03-06T20:42:25.733Z,14.70
2019-03-06T20:45:00.329Z,14.70
2019-03-06T20:47:31.098Z,14.80
2019-03-06T20:50:01.667Z,14.80
2019-03-06T20:52:33.127Z,14.80
2019-03-06T20:55:07.953Z,14.80
2019-03-06T20:57:38.632Z,14.90
2019-03-06T21:00:15.351Z,14.80
2019-03-06T21:02:45.743Z,14.80
2019-03-06T21:05:16.396Z,14.80
2019-03-06T21:07:46.738Z,14.80
2019-03-06T21:10:17.235Z,14.80
2019-03-06T21:12:47.682Z,14.80
2019-03-06T21:15:19.001Z,14.80
2019-03-06T21:17:49.497Z,14.80
2019-03-06T21:20:19.870Z,14.70
2019-03-06T21:22:50.444Z,14.70
2019-03-06T21:25:20.813Z,14.70
2019-03-06T21:27:51.447Z,14.70
2019-03-06T21:30:29.581Z,14.70
2019-03-06T21:32:59.923Z,14.70
2019-03-06T21:35:30.292Z,14.60
2019-03-06T21:38:00.715Z,14.60
2019-03-06T21:40:31.529Z,14.60
2019-03-06T21:43:01.933Z,14.50
2019-03-06T21:45:33.800Z,14.50
2019-03-06T21:48:04.309Z,14.40
2019-03-06T21:50:34.688Z,14.30
2019-03-06T21:53:05.111Z,14.30
2019-03-06T21:55:35.494Z,14.20
2019-03-06T21:58:05.902Z,14.10
2019-03-06T22:00:36.422Z,14.00
2019-03-06T22:03:06.840Z,13.90
2019-03-06T22:05:39.361Z,13.90
2019-03-06T22:08:10.228Z,13.80
2019-03-06T22:10:40.631Z,13.70
2019-03-06T22:13:11.098Z,13.70
2019-03-06T22:15:41.506Z,13.60
2019-03-06T22:18:12.950Z,13.60
2019-03-06T22:20:44.901Z,13.50
2019-03-06T22:23:15.373Z,13.50
2019-03-06T22:26:05.864Z,13.40
2019-03-06T22:28:36.286Z,13.20
2019-03-06T22:31:06.864Z,13.00
2019-03-06T22:33:37.230Z,12.80
2019-03-06T22:36:07.583Z,12.60
2019-03-06T22:38:39.394Z,12.40
2019-03-06T22:41:09.785Z,12.20
2019-03-06T22:43:40.130Z,12.00
2019-03-06T22:46:10.486Z,11.80
2019-03-06T22:48:40.877Z,11.60
2019-03-06T22:51:11.245Z,11.40
2019-03-06T22:53:41.607Z,11.20
2019-03-06T22:56:11.964Z,11.00
2019-03-06T22:58:42.318Z,10.90
2019-03-06T23:01:21.977Z,10.80
2019-03-06T23:03:55.497Z,10.70
2019-03-06T23:06:26.439Z,10.50
2019-03-06T23:08:57.648Z,10.50
2019-03-06T23:11:28.190Z,10.50
2019-03-06T23:14:00.156Z,10.40
2019-03-06T23:16:42.887Z,10.40
2019-03-06T23:19:13.774Z,10.40
2019-03-06T23:21:44.838Z,10.50
2019-03-06T23:24:15.883Z,10.50
2019-03-06T23:26:46.454Z,10.50
2019-03-06T23:29:17.131Z,10.50
2019-03-06T23:31:47.832Z,10.50
2019-03-06T23:34:18.121Z,10.40
2019-03-06T23:36:48.627Z,10.40
2019-03-06T23:39:19.007Z,10.30
2019-03-06T23:41:49.853Z,10.30
2019-03-06T23:44:20.213Z,10.30
2019-03-06T23:46:51.103Z,10.30
2019-03-06T23:49:21.694Z,10.40
2019-03-06T23:52:01.918Z,10.50
2019-03-06T23:54:32.621Z,10.60
2019-03-06T23:57:02.993Z,10.60
2019-03-06T23:59:33.311Z,10.60
